Time;durP1;ratioP1;P1;durP2;ratioP2;P2;SDS_P1;SDS_P2;PMS_P1;PMS_P2;Temp;Humidity;BMP_temperature;BMP_pressure;BME280_temperature;BME280_humidity;BME280_pressure;Samples;Min_cycle;Max_cycle;Signal;HPM_P1;HPM_P2
2022/12/18 00:01:33;;;;;;;78.80;27.40;;;-6.60;99.90;;;;;;5036992;28;20029;-66
2022/12/18 00:04:00;;;;;;;71.63;25.40;;;-6.40;99.90;;;;;;5018984;28;20272;-66
2022/12/18 00:06:27;;;;;;;68.53;25.08;;;-6.20;99.90;;;;;;5038145;28;20152;-65
2022/12/18 00:08:54;;;;;;;62.40;24.63;;;-6.10;99.90;;;;;;5018903;28;20045;-65
2022/12/18 00:11:23;;;;;;;63.30;24.98;;;-6.00;99.90;;;;;;5037732;28;20478;-67
2022/12/18 00:13:49;;;;;;;61.85;25.83;;;-6.10;99.90;;;;;;5036960;28;20374;-66
2022/12/18 00:16:21;;;;;;;63.63;24.67;;;-6.20;99.90;;;;;;5037154;28;20029;-66
2022/12/18 00:18:49;;;;;;;67.63;25.98;;;-6.20;99.90;;;;;;5019324;28;20093;-67
2022/12/18 00:21:15;;;;;;;66.13;25.98;;;-6.30;99.90;;;;;;5037125;28;20021;-66
2022/12/18 00:23:43;;;;;;;72.78;26.05;;;-6.40;99.90;;;;;;5036434;28;20045;-65
2022/12/18 00:26:15;;;;;;;60.90;24.63;;;-6.40;99.90;;;;;;5017999;28;20033;-66
2022/12/18 00:28:41;;;;;;;66.22;23.85;;;-6.40;99.90;;;;;;5035630;28;20029;-66
2022/12/18 00:31:10;;;;;;;60.20;24.02;;;-6.40;99.90;;;;;;5035931;28;20108;-66
2022/12/18 00:33:37;;;;;;;69.53;25.80;;;-6.30;99.90;;;;;;5035921;28;20053;-65
2022/12/18 00:36:08;;;;;;;53.47;23.05;;;-6.30;99.90;;;;;;5035810;28;20038;-65
2022/12/18 00:38:35;;;;;;;59.88;23.55;;;-6.10;99.90;;;;;;5017551;28;20029;-65
2022/12/18 00:41:01;;;;;;;63.05;23.63;;;-6.10;99.90;;;;;;5035772;28;20363;-66
2022/12/18 00:43:26;;;;;;;60.35;23.30;;;-6.00;99.90;;;;;;5035761;28;20053;-66
2022/12/18 00:45:53;;;;;;;57.15;23.67;;;-6.00;99.90;;;;;;5018123;28;20033;-66
2022/12/18 00:48:18;;;;;;;59.03;22.33;;;-6.00;99.90;;;;;;5035579;28;20482;-66
2022/12/18 00:50:44;;;;;;;55.50;22.43;;;-6.10;99.90;;;;;;5035343;28;20067;-66
2022/12/18 00:53:09;;;;;;;61.30;21.37;;;-6.10;99.90;;;;;;5034857;28;20034;-66
2022/12/18 00:55:36;;;;;;;63.43;24.90;;;-6.20;99.90;;;;;;5034864;28;20036;-66
2022/12/18 00:58:02;;;;;;;52.35;22.20;;;-6.40;99.90;;;;;;5035155;28;20112;-66
2022/12/18 01:00:27;;;;;;;55.73;22.20;;;-6.40;99.90;;;;;;5017104;28;20108;-66
2022/12/18 01:02:53;;;;;;;60.70;24.77;;;-6.40;99.90;;;;;;5017704;28;20076;-65
2022/12/18 01:05:18;;;;;;;70.67;26.07;;;-6.50;99.90;;;;;;5036183;28;20029;-65
2022/12/18 01:07:44;;;;;;;65.70;26.20;;;-6.50;99.90;;;;;;5016882;28;20048;-65
2022/12/18 01:10:12;;;;;;;65.50;26.33;;;-6.40;99.90;;;;;;5033854;28;20268;-65
2022/12/18 01:12:38;;;;;;;53.15;21.77;;;-6.40;99.90;;;;;;5035046;28;20036;-66
2022/12/18 01:15:05;;;;;;;57.13;22.98;;;-6.40;99.90;;;;;;5034809;28;20117;-65
2022/12/18 01:17:31;;;;;;;57.72;22.75;;;-6.50;99.90;;;;;;5016561;28;20083;-65
2022/12/18 01:19:56;;;;;;;60.47;21.80;;;-6.40;99.90;;;;;;5034309;28;20026;-66
2022/12/18 01:22:22;;;;;;;59.40;21.97;;;-6.40;99.90;;;;;;5034627;28;20260;-66
2022/12/18 01:24:48;;;;;;;56.70;22.20;;;-6.50;99.90;;;;;;5010984;28;20021;-65
2022/12/18 01:27:13;;;;;;;59.13;24.60;;;-6.40;99.90;;;;;;5014329;28;20105;-66
2022/12/18 01:29:39;;;;;;;70.67;25.63;;;-6.50;99.90;;;;;;5033347;28;20375;-65
2022/12/18 01:32:04;;;;;;;61.70;24.07;;;-6.40;99.90;;;;;;5034432;28;20411;-66
2022/12/18 01:34:30;;;;;;;58.00;22.50;;;-6.20;99.90;;;;;;5034634;28;20029;-66
2022/12/18 01:36:55;;;;;;;58.70;23.60;;;-6.10;99.90;;;;;;5033921;28;20279;-65
2022/12/18 01:39:21;;;;;;;57.90;22.67;;;-6.20;99.90;;;;;;5016639;28;20024;-66
2022/12/18 01:42:02;;;;;;;56.20;22.50;;;-6.10;99.90;;;;;;5034497;28;20108;-66
2022/12/18 01:44:58;;;;;;;65.05;22.77;;;-6.00;99.90;;;;;;5016457;28;20268;-66
2022/12/18 01:47:46;;;;;;;59.33;22.17;;;-6.00;99.90;;;;;;5033905;28;20159;-65
2022/12/18 01:50:25;;;;;;;56.20;22.05;;;-6.10;99.90;;;;;;5033721;28;20029;-65
2022/12/18 01:52:57;;;;;;;63.47;21.27;;;-6.20;99.90;;;;;;5034345;28;20037;-65
2022/12/18 01:55:26;;;;;;;64.72;24.05;;;-6.40;99.90;;;;;;5033364;28;20117;-65
2022/12/18 01:57:58;;;;;;;66.72;24.85;;;-6.50;99.90;;;;;;5033463;28;20030;-65
2022/12/18 02:00:25;;;;;;;64.55;25.08;;;-6.50;99.90;;;;;;5033543;28;20029;-66
2022/12/18 02:02:50;;;;;;;62.55;24.33;;;-6.40;99.90;;;;;;5033471;28;20026;-65
2022/12/18 02:05:36;;;;;;;63.93;23.13;;;-6.40;99.90;;;;;;5034568;28;20032;-65
2022/12/18 02:08:12;;;;;;;60.25;23.58;;;-6.40;99.90;;;;;;5035087;28;20033;-65
2022/12/18 02:11:05;;;;;;;56.88;22.02;;;-6.40;99.90;;;;;;5033941;28;20056;-65
2022/12/18 02:13:36;;;;;;;64.22;24.77;;;-6.50;99.90;;;;;;5015457;28;20524;-65
2022/12/18 02:16:19;;;;;;;66.53;24.63;;;-6.40;99.90;;;;;;5033404;28;20025;-65
2022/12/18 02:18:50;;;;;;;65.50;24.98;;;-6.40;99.90;;;;;;5033203;28;20037;-65
2022/12/18 02:21:27;;;;;;;63.42;23.45;;;-6.40;99.90;;;;;;5032241;28;20032;-66
2022/12/18 02:23:53;;;;;;;62.90;23.70;;;-6.30;99.90;;;;;;5033159;28;20474;-65
2022/12/18 02:26:25;;;;;;;64.60;23.83;;;-6.40;99.90;;;;;;5033080;28;20040;-66
2022/12/18 02:29:00;;;;;;;66.43;23.55;;;-6.50;99.90;;;;;;5033370;28;20075;-66
2022/12/18 02:31:36;;;;;;;63.17;20.92;;;-6.40;99.90;;;;;;5034546;28;20036;-66
2022/12/18 02:34:05;;;;;;;58.13;22.40;;;-6.50;99.90;;;;;;5036767;28;20152;-66
2022/12/18 02:36:32;;;;;;;60.05;24.08;;;-6.70;99.90;;;;;;5018037;28;20040;-66
2022/12/18 02:38:59;;;;;;;56.92;21.88;;;-6.70;99.90;;;;;;5033889;28;20159;-66
2022/12/18 02:41:25;;;;;;;55.42;22.92;;;-6.60;99.90;;;;;;5033400;28;20386;-66
2022/12/18 02:44:01;;;;;;;58.53;23.98;;;-6.60;99.90;;;;;;5015260;28;20099;-66
2022/12/18 02:46:34;;;;;;;57.88;23.42;;;-6.70;99.90;;;;;;5033333;28;20022;-66
2022/12/18 02:49:17;;;;;;;64.00;23.98;;;-6.50;99.90;;;;;;5033299;28;20518;-65
2022/12/18 02:52:01;;;;;;;61.78;24.65;;;-6.60;99.90;;;;;;5033460;28;20429;-64
2022/12/18 02:54:53;;;;;;;54.38;23.02;;;-6.60;99.90;;;;;;5032671;28;20034;-66
2022/12/18 02:57:48;;;;;;;59.40;22.17;;;-6.30;99.90;;;;;;5032633;28;20057;-66
2022/12/18 03:00:29;;;;;;;60.40;22.95;;;-6.30;99.90;;;;;;5033185;28;20022;-66
2022/12/18 03:03:05;;;;;;;64.07;24.73;;;-6.30;99.90;;;;;;5033228;28;20107;-66
2022/12/18 03:05:36;;;;;;;54.42;23.48;;;-6.20;99.90;;;;;;5015454;28;20092;-64
2022/12/18 03:08:02;;;;;;;55.42;22.80;;;-6.00;99.90;;;;;;5032869;28;20041;-64
2022/12/18 03:10:32;;;;;;;55.60;22.73;;;-6.10;99.90;;;;;;5032541;28;20363;-65
2022/12/18 03:13:13;;;;;;;59.08;24.55;;;-6.10;99.90;;;;;;5033561;28;20424;-65
2022/12/18 03:15:45;;;;;;;57.53;22.25;;;-6.10;99.90;;;;;;5032821;28;20394;-66
2022/12/18 03:18:17;;;;;;;55.92;22.85;;;-6.00;99.90;;;;;;5032650;28;20033;-66
2022/12/18 03:20:45;;;;;;;55.90;21.98;;;-5.90;99.90;;;;;;5032773;28;20474;-65
2022/12/18 03:23:15;;;;;;;57.92;23.73;;;-5.80;99.90;;;;;;5032793;28;20467;-66
2022/12/18 03:25:44;;;;;;;55.47;24.30;;;-5.70;99.90;;;;;;5032145;28;20446;-66
2022/12/18 03:28:20;;;;;;;57.20;22.83;;;-5.80;99.90;;;;;;5014906;28;20097;-66
2022/12/18 03:30:50;;;;;;;64.37;24.37;;;-5.90;99.90;;;;;;5033039;28;20021;-67
2022/12/18 03:33:23;;;;;;;53.55;22.83;;;-6.00;99.90;;;;;;5034595;28;20268;-66
2022/12/18 03:35:49;;;;;;;53.55;22.83;;;-6.10;99.90;;;;;;5036270;28;20512;-66
2022/12/18 03:38:15;;;;;;;69.75;24.42;;;-6.30;99.90;;;;;;5036758;28;20068;-67
2022/12/18 03:40:53;;;;;;;60.28;24.00;;;-6.40;99.90;;;;;;5036508;28;20053;-64
2022/12/18 03:43:28;;;;;;;61.20;22.80;;;-6.50;99.90;;;;;;5036202;28;20026;-66
2022/12/18 03:46:06;;;;;;;54.53;22.55;;;-6.50;99.90;;;;;;5036165;28;20025;-65
2022/12/18 03:48:40;;;;;;;60.30;22.05;;;-6.50;99.90;;;;;;4998557;28;20394;-65
2022/12/18 03:51:10;;;;;;;52.03;20.92;;;-6.50;99.90;;;;;;5026122;28;20037;-65
2022/12/18 03:53:57;;;;;;;54.95;23.10;;;-6.60;99.90;;;;;;5035664;28;20022;-66
2022/12/18 03:56:27;;;;;;;61.95;23.35;;;-6.60;99.90;;;;;;5035746;28;20104;-65
2022/12/18 03:58:56;;;;;;;55.95;21.77;;;-6.60;99.90;;;;;;5036028;28;20354;-66
2022/12/18 04:01:28;;;;;;;58.63;21.65;;;-6.50;99.90;;;;;;5035861;28;20022;-66
2022/12/18 04:03:54;;;;;;;59.85;20.70;;;-6.60;99.90;;;;;;5018014;28;20026;-65
2022/12/18 04:06:20;;;;;;;;;;;-6.60;99.90;;;;;;5036018;28;20069;-65
2022/12/18 04:08:47;;;;;;;59.63;22.52;;;-6.60;99.90;;;;;;5035764;28;19912;-66
2022/12/18 04:11:12;;;;;;;;;;;-6.70;99.90;;;;;;5036193;28;20061;-66
2022/12/18 04:13:39;;;;;;;52.47;19.25;;;-6.70;99.90;;;;;;5035780;28;20257;-66
2022/12/18 04:16:04;;;;;;;;;;;-6.60;99.90;;;;;;5035853;28;20044;-66
2022/12/18 04:18:30;;;;;;;58.80;20.35;;;-6.70;99.90;;;;;;5035892;28;19909;-67
2022/12/18 04:20:56;;;;;;;54.58;22.30;;;-6.90;99.90;;;;;;5019190;28;20382;-66
2022/12/18 04:23:21;;;;;;;59.70;21.17;;;-6.80;99.90;;;;;;5037453;28;20029;-66
2022/12/18 04:25:47;;;;;;;52.75;19.83;;;-6.90;99.90;;;;;;5018962;28;20033;-67
2022/12/18 04:28:13;;;;;;;68.47;22.80;;;-7.00;99.90;;;;;;5035877;28;20501;-66
2022/12/18 04:30:38;;;;;;;59.80;21.70;;;-7.10;99.90;;;;;;5035850;28;20087;-66
2022/12/18 04:33:08;;;;;;;62.97;22.57;;;-7.10;99.90;;;;;;5035453;28;20034;-66
2022/12/18 04:35:33;;;;;;;72.63;22.10;;;-7.00;99.90;;;;;;5035274;28;20025;-66
2022/12/18 04:37:59;;;;;;;64.80;23.27;;;-7.00;99.90;;;;;;5035213;28;20508;-66
2022/12/18 04:40:24;;;;;;;65.20;23.57;;;-7.00;99.90;;;;;;5034896;28;20028;-66
2022/12/18 04:42:50;;;;;;;64.70;23.53;;;-7.00;99.90;;;;;;5035128;28;20037;-66
2022/12/18 04:45:15;;;;;;;58.00;23.07;;;-7.10;99.90;;;;;;5034167;28;20045;-66
2022/12/18 04:47:41;;;;;;;69.83;23.00;;;-7.10;99.90;;;;;;5035020;28;20033;-66
2022/12/18 04:50:07;;;;;;;64.77;23.53;;;-7.00;99.90;;;;;;5035313;28;20268;-66
2022/12/18 04:52:32;;;;;;;68.25;23.48;;;-7.00;99.90;;;;;;5034970;28;20409;-66
2022/12/18 04:54:58;;;;;;;72.13;24.13;;;-7.00;99.90;;;;;;5034611;28;20037;-67
2022/12/18 04:57:23;;;;;;;74.33;24.23;;;-7.00;99.90;;;;;;5016913;28;20287;-67
2022/12/18 04:59:49;;;;;;;73.53;23.87;;;-7.00;99.90;;;;;;5034801;28;20032;-67
2022/12/18 05:02:14;;;;;;;74.63;24.73;;;-6.90;99.90;;;;;;5034651;28;20037;-67
2022/12/18 05:04:40;;;;;;;75.20;25.47;;;-6.90;99.90;;;;;;5034523;28;20022;-68
2022/12/18 05:07:06;;;;;;;73.00;25.23;;;-6.80;99.90;;;;;;5034506;28;20105;-66
2022/12/18 05:09:31;;;;;;;72.80;25.83;;;-6.70;99.90;;;;;;5034168;28;20316;-67
2022/12/18 05:11:57;;;;;;;76.33;26.50;;;-6.60;99.90;;;;;;5034182;28;20049;-66
2022/12/18 05:14:22;;;;;;;73.60;22.97;;;-6.60;99.90;;;;;;5034383;28;20037;-66
2022/12/18 05:16:48;;;;;;;72.00;24.08;;;-6.60;99.90;;;;;;5034435;28;20034;-66
2022/12/18 05:19:14;;;;;;;69.07;23.88;;;-6.60;99.90;;;;;;5034383;28;20321;-67
2022/12/18 05:21:39;;;;;;;85.20;27.27;;;-6.70;99.90;;;;;;5034799;28;20105;-66
2022/12/18 05:24:05;;;;;;;88.83;25.90;;;-6.60;99.90;;;;;;5034172;28;20061;-66
2022/12/18 05:26:30;;;;;;;83.53;25.30;;;-6.50;99.90;;;;;;5033970;28;20104;-67
2022/12/18 05:28:56;;;;;;;79.73;27.23;;;-6.50;99.90;;;;;;5034591;28;20517;-67
2022/12/18 05:31:22;;;;;;;80.07;26.23;;;-6.40;99.90;;;;;;5034110;28;20109;-66
2022/12/18 05:33:50;;;;;;;76.03;26.07;;;-6.40;99.90;;;;;;5034299;28;20033;-66
2022/12/18 05:36:16;;;;;;;70.38;25.05;;;-6.30;99.90;;;;;;5016351;28;20512;-66
2022/12/18 05:38:41;;;;;;;80.33;26.90;;;-6.20;99.90;;;;;;5033836;28;20053;-66
2022/12/18 05:41:08;;;;;;;77.67;25.60;;;-6.20;99.90;;;;;;5033691;28;20029;-66
2022/12/18 05:43:36;;;;;;;80.43;24.27;;;-6.10;99.90;;;;;;5033951;28;20076;-66
2022/12/18 05:46:11;;;;;;;76.60;27.63;;;-6.20;99.90;;;;;;5034240;28;20037;-66
2022/12/18 05:48:37;;;;;;;64.47;23.48;;;-6.20;99.90;;;;;;5034323;28;20032;-66
2022/12/18 05:51:06;;;;;;;72.13;25.33;;;-6.10;99.90;;;;;;5034217;28;20025;-68
2022/12/18 05:53:32;;;;;;;71.22;26.92;;;-6.10;99.90;;;;;;5034194;28;20100;-68
2022/12/18 05:56:00;;;;;;;76.10;26.67;;;-6.10;99.90;;;;;;5033661;28;20064;-67
2022/12/18 05:58:26;;;;;;;76.25;25.33;;;-6.00;99.90;;;;;;5034319;28;20275;-67
2022/12/18 06:00:51;;;;;;;75.77;23.90;;;-5.90;99.90;;;;;;5035679;28;20100;-67
2022/12/18 06:03:17;;;;;;;77.03;23.93;;;-5.80;99.90;;;;;;5035617;28;20699;-67
2022/12/18 06:05:44;;;;;;;73.00;26.37;;;-5.70;99.90;;;;;;5017192;28;20363;-67
2022/12/18 06:08:11;;;;;;;66.07;25.88;;;-5.80;99.90;;;;;;5034291;28;20103;-66
2022/12/18 06:10:36;;;;;;;70.90;25.75;;;-5.80;99.90;;;;;;5034277;28;20032;-67
2022/12/18 06:13:02;;;;;;;63.33;21.02;;;-5.70;99.90;;;;;;5034140;28;20478;-67
2022/12/18 06:15:28;;;;;;;72.10;23.17;;;-5.80;99.90;;;;;;5033534;28;20390;-66
2022/12/18 06:17:54;;;;;;;66.03;23.73;;;-5.90;99.90;;;;;;5033386;28;20036;-67
2022/12/18 06:20:19;;;;;;;74.57;26.02;;;-5.80;99.90;;;;;;5033570;28;20721;-66
2022/12/18 06:22:45;;;;;;;80.85;25.75;;;-5.80;99.90;;;;;;5033970;28;20017;-67
2022/12/18 06:25:11;;;;;;;71.57;23.90;;;-5.80;99.90;;;;;;5033676;28;20055;-65
2022/12/18 06:27:36;;;;;;;71.00;23.63;;;-5.60;99.90;;;;;;5015908;28;20063;-67
2022/12/18 06:30:03;;;;;;;68.77;23.97;;;-5.60;99.90;;;;;;5033585;28;20040;-65
2022/12/18 06:32:28;;;;;;;68.63;25.98;;;-5.60;99.90;;;;;;5033402;28;20029;-66
2022/12/18 06:34:55;;;;;;;68.17;24.63;;;-5.60;99.90;;;;;;5034282;28;20029;-66
2022/12/18 06:37:21;;;;;;;79.07;24.80;;;-5.60;99.90;;;;;;5035570;28;20037;-67
2022/12/18 06:39:46;;;;;;;69.65;25.02;;;-5.60;99.90;;;;;;5033759;28;20025;-66
2022/12/18 06:42:12;;;;;;;74.23;26.33;;;-5.60;99.90;;;;;;5033772;28;20029;-66
2022/12/18 06:44:37;;;;;;;77.27;26.93;;;-5.50;99.90;;;;;;5034379;28;20104;-66
2022/12/18 06:47:03;;;;;;;66.27;24.37;;;-5.60;99.90;;;;;;5034265;28;20036;-66
2022/12/18 06:49:28;;;;;;;72.63;24.17;;;-5.50;99.90;;;;;;5016284;28;20029;-66
2022/12/18 06:51:54;;;;;;;66.00;22.23;;;-5.40;99.90;;;;;;5033930;28;20108;-66
2022/12/18 06:54:20;;;;;;;70.60;23.43;;;-5.50;99.90;;;;;;5034445;28;20041;-66
2022/12/18 06:56:46;;;;;;;69.40;24.47;;;-5.40;99.90;;;;;;5015955;28;20502;-66
2022/12/18 06:59:13;;;;;;;69.65;25.63;;;-5.30;99.90;;;;;;5015172;28;20072;-66
2022/12/18 07:01:38;;;;;;;68.13;25.10;;;-5.40;99.90;;;;;;5015002;28;20097;-66
2022/12/18 07:04:04;;;;;;;68.03;25.73;;;-5.30;99.90;;;;;;5028247;28;20104;-64
2022/12/18 07:06:30;;;;;;;71.50;25.13;;;-5.20;99.90;;;;;;5033001;28;20040;-66
2022/12/18 07:08:55;;;;;;;79.90;26.73;;;-5.40;99.90;;;;;;5035938;28;20037;-65
2022/12/18 07:11:21;;;;;;;59.50;23.83;;;-4.90;99.90;;;;;;5036719;28;20029;-66
2022/12/18 07:13:47;;;;;;;73.47;25.30;;;-5.00;99.90;;;;;;5037079;28;20034;-66
2022/12/18 07:16:15;;;;;;;73.35;24.88;;;-4.90;99.90;;;;;;5037004;28;20025;-66
2022/12/18 07:18:40;;;;;;;63.65;24.10;;;-5.00;99.90;;;;;;5036477;28;20440;-66
2022/12/18 07:21:08;;;;;;;71.87;24.63;;;-5.10;99.90;;;;;;5037926;28;20061;-65
2022/12/18 07:23:35;;;;;;;64.28;24.35;;;-5.10;99.90;;;;;;5036499;28;20076;-65
2022/12/18 07:26:05;;;;;;;64.13;24.45;;;-5.00;99.90;;;;;;5018373;28;20371;-66
2022/12/18 07:28:31;;;;;;;70.78;25.27;;;-5.00;99.90;;;;;;5036426;28;20029;-66
2022/12/18 07:30:58;;;;;;;77.68;25.77;;;-5.40;99.90;;;;;;5036467;28;20482;-66
2022/12/18 07:33:24;;;;;;;67.78;24.80;;;-5.20;99.90;;;;;;5036752;28;20481;-66
2022/12/18 07:35:50;;;;;;;70.97;24.08;;;-5.70;99.90;;;;;;5018522;28;20036;-67
2022/12/18 07:38:15;;;;;;;76.20;24.23;;;-5.60;99.90;;;;;;5036390;28;20037;-67
2022/12/18 07:40:41;;;;;;;68.67;24.67;;;-5.50;99.90;;;;;;5036274;28;20029;-67
2022/12/18 07:43:06;;;;;;;73.20;23.23;;;-5.30;99.90;;;;;;5036786;28;20478;-68
2022/12/18 07:45:32;;;;;;;65.10;23.83;;;-5.30;99.90;;;;;;5036391;28;20096;-67
2022/12/18 07:47:57;;;;;;;77.05;25.05;;;-5.40;99.90;;;;;;5018784;28;20025;-66
2022/12/18 07:50:23;;;;;;;64.17;22.33;;;-5.40;99.90;;;;;;5036464;28;20029;-67
2022/12/18 07:52:49;;;;;;;63.85;22.48;;;-5.30;99.90;;;;;;5037028;28;20029;-67
2022/12/18 07:55:14;;;;;;;69.50;22.40;;;-5.40;99.90;;;;;;5039355;28;20044;-67
2022/12/18 07:57:40;;;;;;;73.33;26.00;;;-5.70;99.90;;;;;;5040331;28;20043;-66
2022/12/18 08:00:07;;;;;;;74.87;23.80;;;-5.70;99.90;;;;;;5039755;28;20474;-66
2022/12/18 08:02:32;;;;;;;75.18;25.02;;;-5.40;99.90;;;;;;5036184;28;20079;-66
2022/12/18 08:04:58;;;;;;;63.83;22.13;;;-5.40;99.90;;;;;;5036081;28;20025;-66
2022/12/18 08:07:23;;;;;;;61.28;21.20;;;-5.60;99.90;;;;;;5035546;28;20037;-66
2022/12/18 08:09:49;;;;;;;74.87;23.50;;;-5.90;99.90;;;;;;5036056;28;20044;-66
2022/12/18 08:12:14;;;;;;;73.60;24.30;;;-5.80;99.90;;;;;;5036482;28;20048;-68
2022/12/18 08:14:40;;;;;;;77.87;27.90;;;-5.80;99.90;;;;;;5019012;28;20036;-66
2022/12/18 08:17:05;;;;;;;69.53;24.73;;;-6.10;99.90;;;;;;5036415;28;20339;-66
2022/12/18 08:19:31;;;;;;;76.30;25.70;;;-6.00;99.90;;;;;;5016192;28;20088;-65
2022/12/18 08:21:56;;;;;;;81.27;24.97;;;-5.80;99.90;;;;;;5036191;28;20036;-67
2022/12/18 08:24:22;;;;;;;69.97;23.27;;;-5.70;99.90;;;;;;5017852;28;20021;-66
2022/12/18 08:26:48;;;;;;;68.28;24.15;;;-5.50;99.90;;;;;;5030437;28;20632;-66
2022/12/18 08:29:13;;;;;;;69.20;25.00;;;-5.40;99.90;;;;;;5017557;28;20030;-67
2022/12/18 08:31:39;;;;;;;71.17;24.27;;;-5.50;99.90;;;;;;5018024;28;20552;-67
2022/12/18 08:34:04;;;;;;;75.27;25.40;;;-5.50;99.90;;;;;;5016194;28;20096;-66
2022/12/18 08:36:30;;;;;;;73.10;25.97;;;-5.50;99.90;;;;;;5027214;28;20017;-66
2022/12/18 08:38:56;;;;;;;68.97;26.13;;;-5.50;99.90;;;;;;5031728;28;20037;-67
2022/12/18 08:41:22;;;;;;;74.90;25.25;;;-5.20;99.90;;;;;;5037219;28;20268;-67
2022/12/18 08:46:38;;;;;;;70.93;25.38;;;-5.00;99.90;;;;;;5036103;28;20083;-67
2022/12/18 08:49:04;;;;;;;69.82;25.75;;;-5.00;99.90;;;;;;5035612;28;20360;-66
2022/12/18 08:51:30;;;;;;;80.57;25.90;;;-5.00;99.90;;;;;;5036047;28;20029;-66
2022/12/18 08:53:56;;;;;;;78.13;25.65;;;-5.10;99.90;;;;;;5037202;28;20082;-66
2022/12/18 08:56:21;;;;;;;76.17;25.63;;;-5.10;99.90;;;;;;5037059;28;20061;-66
2022/12/18 08:58:47;;;;;;;66.67;24.50;;;-5.10;99.90;;;;;;5037598;28;20033;-67
2022/12/18 09:01:13;;;;;;;70.30;25.57;;;-5.30;99.90;;;;;;5019336;28;20044;-66
2022/12/18 09:03:39;;;;;;;76.57;26.90;;;-5.30;99.90;;;;;;5036265;28;20030;-68
2022/12/18 09:06:05;;;;;;;67.32;22.65;;;-5.30;99.90;;;;;;5035636;28;20030;-66
2022/12/18 09:08:35;;;;;;;80.82;27.63;;;-5.20;99.90;;;;;;5034336;28;20117;-65
2022/12/18 09:11:00;;;;;;;74.85;25.73;;;-5.30;99.90;;;;;;5034327;28;20112;-67
2022/12/18 09:13:26;;;;;;;73.87;27.40;;;-5.20;99.90;;;;;;5034632;28;20509;-66
2022/12/18 09:15:53;;;;;;;72.72;24.88;;;-5.00;99.90;;;;;;5034482;28;20083;-66
2022/12/18 09:18:21;;;;;;;70.25;25.67;;;-4.90;99.90;;;;;;5034388;28;20029;-66
2022/12/18 09:20:47;;;;;;;66.13;24.50;;;-4.80;99.90;;;;;;5034243;28;20444;-66
2022/12/18 09:23:12;;;;;;;71.63;24.48;;;-4.80;99.90;;;;;;5016755;28;20025;-67
2022/12/18 09:25:38;;;;;;;67.23;25.90;;;-4.70;99.90;;;;;;5033865;28;20030;-66
2022/12/18 09:28:17;;;;;;;73.10;25.45;;;-4.70;99.90;;;;;;5034229;28;20033;-66
2022/12/18 09:30:46;;;;;;;67.65;24.95;;;-4.50;99.90;;;;;;5033753;28;20056;-66
2022/12/18 09:33:12;;;;;;;69.28;24.35;;;-4.30;99.90;;;;;;5034440;28;20204;-66
2022/12/18 09:35:43;;;;;;;72.88;26.48;;;-4.00;99.90;;;;;;5034930;28;20064;-66
2022/12/18 09:38:11;;;;;;;69.25;24.95;;;-3.80;99.90;;;;;;5016827;28;20025;-65
2022/12/18 09:40:43;;;;;;;67.03;25.55;;;-3.80;99.90;;;;;;5033769;28;20017;-66
2022/12/18 09:43:22;;;;;;;66.63;22.55;;;-3.80;99.90;;;;;;5034623;28;20088;-66
2022/12/18 09:45:55;;;;;;;66.40;25.20;;;-3.90;99.90;;;;;;5034202;28;20113;-66
2022/12/18 09:48:32;;;;;;;70.93;29.17;;;-4.30;99.90;;;;;;5033443;28;20029;-65
2022/12/18 09:51:05;;;;;;;83.68;26.98;;;-5.00;99.90;;;;;;5027086;28;20537;-66
2022/12/18 09:53:35;;;;;;;76.13;27.55;;;-5.30;99.90;;;;;;5034574;28;20033;-66
2022/12/18 09:56:03;;;;;;;72.75;26.88;;;-4.80;99.90;;;;;;5015809;28;20056;-66
2022/12/18 09:58:32;;;;;;;69.15;27.40;;;-4.50;99.90;;;;;;5033654;28;20061;-66
2022/12/18 10:00:57;;;;;;;85.95;31.48;;;-4.50;99.90;;;;;;5033918;28;20025;-66
2022/12/18 10:03:23;;;;;;;70.70;26.87;;;-4.80;99.90;;;;;;5033784;28;20382;-66
2022/12/18 10:06:00;;;;;;;80.50;28.20;;;-4.50;99.90;;;;;;5033438;28;20025;-67
2022/12/18 10:09:03;;;;;;;69.90;26.23;;;-4.50;99.90;;;;;;5033648;28;20449;-66
2022/12/18 10:11:52;;;;;;;72.45;27.00;;;-4.40;99.90;;;;;;5016257;28;20059;-65
2022/12/18 10:14:46;;;;;;;73.40;26.58;;;-4.40;99.90;;;;;;5034444;28;20029;-65
2022/12/18 10:17:17;;;;;;;69.03;26.80;;;-4.30;99.90;;;;;;5017972;28;20059;-65
2022/12/18 10:19:59;;;;;;;72.75;25.85;;;-4.40;99.90;;;;;;5034606;28;20021;-66
2022/12/18 10:22:43;;;;;;;68.90;25.98;;;-4.40;99.90;;;;;;5034006;28;20018;-66
2022/12/18 10:25:34;;;;;;;77.32;27.10;;;-4.40;99.90;;;;;;5035648;28;20021;-66
2022/12/18 10:28:11;;;;;;;65.53;25.58;;;-4.20;99.90;;;;;;5034841;28;20037;-65
2022/12/18 10:30:39;;;;;;;66.53;25.60;;;-4.10;99.90;;;;;;5034000;28;20113;-64
2022/12/18 10:33:05;;;;;;;69.63;25.23;;;-4.00;99.90;;;;;;5033459;28;20474;-65
2022/12/18 10:35:31;;;;;;;76.47;26.88;;;-3.80;99.90;;;;;;5033568;28;20519;-65
2022/12/18 10:38:31;;;;;;;66.72;24.88;;;-3.80;99.90;;;;;;5032325;28;20179;-65
2022/12/18 10:40:59;;;;;;;65.20;24.42;;;-3.50;99.90;;;;;;4952150;29;20194;-66
2022/12/18 10:43:28;;;;;;;63.80;25.60;;;-3.40;99.90;;;;;;4951325;29;20039;-65
2022/12/18 10:46:00;;;;;;;64.93;22.63;;;-3.40;99.90;;;;;;4953834;29;20027;-64
2022/12/18 10:48:27;;;;;;;63.60;23.98;;;-3.30;99.90;;;;;;4953439;29;20522;-68
2022/12/18 10:50:52;;;;;;;;;;;-3.20;99.90;;;;;;4937923;29;20031;-66
2022/12/18 10:53:22;;;;;;;64.82;25.23;;;-3.10;99.90;;;;;;4953542;29;19913;-67
2022/12/18 10:55:49;;;;;;;67.15;22.67;;;-3.50;99.90;;;;;;4952442;29;20027;-66
2022/12/18 10:58:35;;;;;;;77.25;28.73;;;-3.80;99.90;;;;;;4953536;29;20039;-66
2022/12/18 11:01:03;;;;;;;67.85;23.75;;;-4.20;99.90;;;;;;4953112;29;20075;-67
2022/12/18 11:03:38;;;;;;;71.00;26.05;;;-4.10;99.90;;;;;;4952802;29;20043;-67
2022/12/18 11:06:08;;;;;;;79.82;30.00;;;-4.10;99.90;;;;;;4952990;29;20038;-66
2022/12/18 11:08:33;;;;;;;72.72;26.40;;;-4.30;99.90;;;;;;4952871;28;20054;-67
2022/12/18 11:10:59;;;;;;;75.23;27.60;;;-4.10;99.90;;;;;;4936545;29;20476;-66
2022/12/18 11:13:28;;;;;;;71.13;27.08;;;-3.70;99.90;;;;;;4953105;29;20116;-66
2022/12/18 11:15:54;;;;;;;69.53;24.95;;;-3.40;99.90;;;;;;4968669;28;20129;-68
2022/12/18 11:18:27;;;;;;;78.65;26.88;;;-3.70;99.90;;;;;;5029356;28;20072;-66
2022/12/18 11:21:15;;;;;;;76.45;26.58;;;-3.70;99.90;;;;;;5015147;28;20026;-67
2022/12/18 11:23:50;;;;;;;73.32;29.20;;;-3.60;99.90;;;;;;5032488;28;20486;-67
2022/12/18 11:26:16;;;;;;;74.45;30.65;;;-3.60;99.90;;;;;;5032727;28;20050;-67
2022/12/18 11:28:50;;;;;;;69.40;25.85;;;-3.60;99.90;;;;;;5032679;28;20044;-67
2022/12/18 11:31:27;;;;;;;72.95;25.13;;;-3.30;99.90;;;;;;5027720;28;20068;-67
2022/12/18 11:34:24;;;;;;;72.50;28.13;;;-3.10;99.90;;;;;;5012925;28;20045;-67
2022/12/18 11:36:50;;;;;;;80.57;28.35;;;-3.10;99.90;;;;;;5014980;28;20037;-68
2022/12/18 11:39:16;;;;;;;67.88;28.45;;;-3.00;99.90;;;;;;5029302;28;20025;-67
2022/12/18 11:42:09;;;;;;;73.23;27.50;;;-3.30;99.90;;;;;;5031671;28;20100;-66
2022/12/18 11:45:17;;;;;;;68.50;26.25;;;-3.20;99.90;;;;;;5030191;28;20060;-68
2022/12/18 11:47:52;;;;;;;73.50;27.80;;;-3.10;99.90;;;;;;4928424;29;20420;-67
2022/12/18 11:50:22;;;;;;;69.15;28.15;;;-3.10;99.90;;;;;;4933122;29;20481;-67
2022/12/18 11:52:47;;;;;;;75.78;26.70;;;-3.10;99.90;;;;;;4935881;29;20046;-67
2022/12/18 11:55:27;;;;;;;74.88;28.08;;;-3.10;99.90;;;;;;4940172;29;20060;-67
2022/12/18 11:58:07;;;;;;;69.93;27.27;;;-3.20;99.90;;;;;;4921708;29;20028;-63
2022/12/18 12:00:40;;;;;;;79.47;28.10;;;-3.50;99.90;;;;;;4923839;29;20031;-66
2022/12/18 12:03:27;;;;;;;80.68;27.77;;;-3.10;99.90;;;;;;4939182;29;20450;-67
2022/12/18 12:06:14;;;;;;;177.55;59.85;;;-3.40;99.90;;;;;;4920253;29;20133;-66
2022/12/18 12:08:58;;;;;;;81.45;29.90;;;-3.50;99.90;;;;;;4938093;29;20535;-67
2022/12/18 12:11:46;;;;;;;73.70;28.08;;;-3.30;99.90;;;;;;4941923;29;20115;-68
2022/12/18 12:14:27;;;;;;;64.28;26.38;;;-3.10;99.90;;;;;;4935033;29;20058;-64
2022/12/18 12:17:04;;;;;;;69.22;26.63;;;-2.90;99.90;;;;;;4937969;29;20548;-66
2022/12/18 12:19:35;;;;;;;80.68;27.75;;;-2.80;99.90;;;;;;4936927;29;20043;-65
2022/12/18 12:22:05;;;;;;;65.72;26.75;;;-2.80;99.90;;;;;;4934917;28;20031;-67
2022/12/18 12:24:52;;;;;;;73.22;26.80;;;-2.80;99.90;;;;;;5032693;28;20109;-66
2022/12/18 12:27:21;;;;;;;76.38;25.38;;;-2.60;99.90;;;;;;5018718;28;20030;-66
2022/12/18 12:30:21;;;;;;;81.57;31.13;;;-2.40;99.90;;;;;;5034750;28;20029;-65
2022/12/18 12:33:06;;;;;;;74.47;29.13;;;-2.40;99.90;;;;;;4976580;28;20043;-66
2022/12/18 12:36:19;;;;;;;64.50;26.40;;;-2.40;99.90;;;;;;4963758;28;20140;-66
2022/12/18 12:38:50;;;;;;;69.45;28.42;;;-2.50;99.90;;;;;;4957804;28;20051;-65
2022/12/18 12:44:09;;;;;;;71.32;28.92;;;-2.60;99.90;;;;;;4975125;28;20046;-69
2022/12/18 12:46:39;;;;;;;70.93;26.20;;;-2.80;99.90;;;;;;4974482;28;20042;-64
2022/12/18 12:49:17;;;;;;;71.10;27.17;;;-2.60;99.90;;;;;;4961612;28;20039;-65